createdAt,value
2023-02-01T00:00:00.129Z,73.89
2023-02-01T00:02:27.185Z,73.69
2023-02-01T00:04:54.039Z,73.51
2023-02-01T00:07:20.899Z,73.78
2023-02-01T00:09:47.761Z,73.61
2023-02-01T00:12:14.727Z,73.94
2023-02-01T00:14:41.590Z,74.11
2023-02-01T00:17:08.704Z,73.94
2023-02-01T00:19:35.762Z,74.22
2023-02-01T00:22:02.701Z,74.32
2023-02-01T00:24:29.660Z,73.92
2023-02-01T00:26:56.964Z,74.31
2023-02-01T00:29:23.999Z,74.35
2023-02-01T00:31:52.767Z,74.42
2023-02-01T00:34:21.220Z,74.11
2023-02-01T00:36:48.197Z,74.62
2023-02-01T00:39:15.717Z,74.67
2023-02-01T00:41:44.194Z,74.47
2023-02-01T00:44:11.062Z,75.08
2023-02-01T00:46:38.309Z,75.65
2023-02-01T00:49:05.375Z,74.47
2023-02-01T00:51:32.445Z,74.99
2023-02-01T00:53:59.393Z,74.66
2023-02-01T00:56:28.513Z,74.80
2023-02-01T00:58:55.896Z,74.54
2023-02-01T01:01:29.436Z,74.56
2023-02-01T01:03:59.252Z,74.28
2023-02-01T01:06:29.347Z,74.06
2023-02-01T01:08:58.151Z,74.74
2023-02-01T01:11:27.953Z,73.91
2023-02-01T01:13:56.905Z,74.21
2023-02-01T01:16:25.952Z,74.00
2023-02-01T01:18:53.391Z,73.91
2023-02-01T01:21:20.611Z,74.25
2023-02-01T01:23:47.990Z,73.67
2023-02-01T01:26:17.692Z,73.96
2023-02-01T01:28:44.669Z,74.35
2023-02-01T01:31:13.303Z,74.45
2023-02-01T01:33:40.245Z,74.81
2023-02-01T01:36:12.330Z,74.51
2023-02-01T01:38:43.748Z,75.07
2023-02-01T01:41:25.327Z,75.01
2023-02-01T01:44:01.307Z,75.49
2023-02-01T01:46:30.159Z,79.20
2023-02-01T01:49:08.697Z,75.31
2023-02-01T01:51:41.035Z,74.26
2023-02-01T01:54:25.011Z,74.40
2023-02-01T01:56:58.236Z,74.79
2023-02-01T01:59:25.758Z,73.92
2023-02-01T02:01:53.393Z,74.36
2023-02-01T02:04:21.017Z,74.84
2023-02-01T02:06:56.572Z,74.42
2023-02-01T02:09:23.733Z,74.89
2023-02-01T02:11:50.603Z,74.71
2023-02-01T02:14:20.876Z,75.26
2023-02-01T02:16:58.373Z,78.77
2023-02-01T02:19:52.998Z,77.21
2023-02-01T02:22:36.832Z,77.99
2023-02-01T02:25:21.885Z,78.21
2023-02-01T02:28:04.239Z,77.38
2023-02-01T02:30:38.328Z,76.91
2023-02-01T02:33:05.269Z,77.41
2023-02-01T02:35:43.438Z,76.78
2023-02-01T02:38:32.778Z,76.91
2023-02-01T02:41:44.359Z,76.90
2023-02-01T02:44:41.599Z,77.06
2023-02-01T02:47:34.631Z,76.57
2023-02-01T02:50:39.321Z,77.01
2023-02-01T02:53:43.731Z,76.95
2023-02-01T02:56:30.170Z,77.25
2023-02-01T02:59:17.835Z,77.23
2023-02-01T03:02:03.552Z,77.21
2023-02-01T03:04:30.660Z,77.62
2023-02-01T03:06:58.509Z,78.58
2023-02-01T03:09:34.616Z,78.24
2023-02-01T03:12:27.406Z,77.30
2023-02-01T03:28:03.461Z,82.48
2023-02-01T03:30:44.242Z,81.87
2023-02-01T03:33:22.951Z,79.96
2023-02-01T03:35:56.426Z,79.21
2023-02-01T03:38:23.338Z,78.89
2023-02-01T03:41:13.308Z,79.89
2023-02-01T03:43:56.901Z,79.19
2023-02-01T03:46:38.529Z,79.29
2023-02-01T03:49:10.666Z,80.31
2023-02-01T03:51:41.973Z,80.74
2023-02-01T03:54:15.810Z,80.90
2023-02-01T03:56:45.835Z,80.70
2023-02-01T03:59:13.628Z,81.24
2023-02-01T04:01:41.780Z,80.70
2023-02-01T04:04:10.404Z,79.87
2023-02-01T04:06:38.533Z,80.74
2023-02-01T04:09:05.962Z,80.97
2023-02-01T04:11:32.811Z,81.45
2023-02-01T04:13:59.718Z,81.79
2023-02-01T04:16:26.619Z,82.75
2023-02-01T04:21:19.258Z,82.76
2023-02-01T04:23:46.077Z,82.75
2023-02-01T04:26:12.922Z,83.38
2023-02-01T04:28:39.818Z,83.30
2023-02-01T04:31:06.753Z,83.97
2023-02-01T04:33:33.745Z,84.43
2023-02-01T04:36:00.632Z,84.77
2023-02-01T04:38:30.468Z,85.41
2023-02-01T04:40:57.420Z,85.71
2023-02-01T04:43:24.349Z,86.49
2023-02-01T04:45:52.126Z,86.33
2023-02-01T04:48:19.922Z,86.88
2023-02-01T04:50:48.563Z,86.92
2023-02-01T04:53:16.452Z,87.36
2023-02-01T04:55:44.660Z,87.12
2023-02-01T04:58:12.207Z,87.97
2023-02-01T05:00:39.052Z,88.25
2023-02-01T05:03:06.147Z,89.02
2023-02-01T05:05:33.135Z,89.16
2023-02-01T05:08:00.166Z,90.16
2023-02-01T05:10:26.979Z,89.91
2023-02-01T05:13:12.580Z,89.73
2023-02-01T05:15:39.534Z,90.27
2023-02-01T05:18:06.396Z,90.51
2023-02-01T05:20:33.273Z,90.79
2023-02-01T05:23:00.201Z,90.58
2023-02-01T05:25:27.084Z,90.83
2023-02-01T05:27:54.749Z,90.92
2023-02-01T05:30:22.335Z,91.28
2023-02-01T05:32:53.818Z,91.41
2023-02-01T05:35:20.974Z,92.17
2023-02-01T05:37:47.918Z,92.77
2023-02-01T05:40:15.836Z,93.27
2023-02-01T05:42:42.880Z,93.24
2023-02-01T05:45:10.473Z,92.63
2023-02-01T05:47:37.468Z,91.74
2023-02-01T05:50:05.648Z,90.03
2023-02-01T05:52:32.557Z,85.70
2023-02-01T05:54:59.411Z,83.77
2023-02-01T05:57:26.304Z,84.41
2023-02-01T05:59:53.117Z,85.29
2023-02-01T06:02:20.145Z,85.13
2023-02-01T06:04:47.000Z,83.85
2023-02-01T06:07:14.056Z,80.55
2023-02-01T06:09:40.873Z,80.70
2023-02-01T06:12:08.005Z,80.95
2023-02-01T06:14:34.883Z,82.96
2023-02-01T06:17:02.034Z,84.62
2023-02-01T06:19:28.863Z,84.80
2023-02-01T06:21:55.817Z,77.54
2023-02-01T06:24:22.579Z,71.34
2023-02-01T06:26:49.469Z,69.84
2023-02-01T06:29:16.363Z,67.55
2023-02-01T06:31:43.918Z,66.28
2023-02-01T06:34:10.867Z,64.67
2023-02-01T06:36:37.753Z,65.54
2023-02-01T06:39:04.798Z,68.38
2023-02-01T06:41:31.754Z,71.13
2023-02-01T06:43:58.766Z,74.34
2023-02-01T06:46:25.689Z,74.96
2023-02-01T06:48:52.597Z,76.67
2023-02-01T06:51:26.134Z,77.88
2023-02-01T06:53:53.352Z,77.51
2023-02-01T06:56:20.676Z,72.17
2023-02-01T06:58:47.719Z,68.56
2023-02-01T07:01:15.464Z,62.64
2023-02-01T07:03:42.403Z,63.71
2023-02-01T07:06:10.559Z,60.19
2023-02-01T07:08:38.848Z,65.95
2023-02-01T07:11:08.190Z,67.84
2023-02-01T07:13:36.158Z,71.05
2023-02-01T07:16:05.514Z,73.03
2023-02-01T07:18:33.576Z,73.09
2023-02-01T07:21:01.256Z,72.07
2023-02-01T07:23:28.930Z,73.29
2023-02-01T07:25:58.139Z,72.63
2023-02-01T07:28:25.873Z,69.84
2023-02-01T07:30:53.076Z,65.58
2023-02-01T07:33:27.931Z,60.76
2023-02-01T07:35:55.238Z,59.52
2023-02-01T07:38:24.699Z,57.78
2023-02-01T07:40:51.499Z,55.41
2023-02-01T07:43:18.381Z,55.78
2023-02-01T07:45:53.319Z,53.68
2023-02-01T07:48:21.273Z,56.01
2023-02-01T07:50:48.498Z,53.00
2023-02-01T07:53:15.663Z,50.94
2023-02-01T07:55:42.533Z,51.94
2023-02-01T07:58:09.474Z,48.80
2023-02-01T08:00:54.867Z,47.59
2023-02-01T08:03:21.839Z,47.76
2023-02-01T08:05:48.799Z,47.00
2023-02-01T08:08:17.670Z,43.03
2023-02-01T08:10:44.553Z,42.56
2023-02-01T08:13:11.419Z,43.67
2023-02-01T08:15:38.276Z,43.06
2023-02-01T08:18:05.665Z,46.10
2023-02-01T08:20:32.784Z,44.83
2023-02-01T08:22:59.651Z,42.53
2023-02-01T08:25:26.584Z,42.22
2023-02-01T08:27:54.490Z,41.81
2023-02-01T08:30:23.059Z,41.90
2023-02-01T08:32:50.091Z,43.03
2023-02-01T08:35:17.053Z,43.88
2023-02-01T08:37:43.865Z,41.37
2023-02-01T08:40:11.563Z,41.99
2023-02-01T08:42:56.751Z,42.85
2023-02-01T08:45:33.184Z,41.03
2023-02-01T08:48:00.135Z,43.06
2023-02-01T08:50:27.631Z,41.73
2023-02-01T08:52:55.159Z,42.57
2023-02-01T08:55:22.182Z,41.70
2023-02-01T08:57:49.206Z,41.39
2023-02-01T09:00:18.395Z,40.47
2023-02-01T09:02:45.937Z,39.57
2023-02-01T09:05:13.116Z,41.41
2023-02-01T09:07:40.055Z,42.36
2023-02-01T09:10:07.778Z,42.59
2023-02-01T09:12:36.659Z,42.72
2023-02-01T09:15:04.286Z,38.16
2023-02-01T09:17:31.323Z,41.08
2023-02-01T09:19:58.315Z,43.15
2023-02-01T09:22:25.444Z,47.54
2023-02-01T09:24:55.106Z,49.38
2023-02-01T09:27:22.568Z,49.77
2023-02-01T09:29:53.852Z,52.01
2023-02-01T09:32:23.271Z,48.01
2023-02-01T09:34:54.012Z,44.39
2023-02-01T09:37:21.406Z,44.51
2023-02-01T09:39:48.741Z,44.27
2023-02-01T09:42:34.181Z,46.83
2023-02-01T09:45:07.083Z,46.19
2023-02-01T09:47:35.614Z,42.78
2023-02-01T09:50:15.707Z,42.70
2023-02-01T09:52:55.117Z,43.02
2023-02-01T09:55:34.174Z,44.32
2023-02-01T09:58:07.200Z,44.81
2023-02-01T10:00:40.001Z,44.84
2023-02-01T10:03:14.122Z,45.71
2023-02-01T10:05:59.488Z,40.94
2023-02-01T10:08:49.800Z,36.56
2023-02-01T10:11:30.338Z,38.73
2023-02-01T10:14:16.854Z,38.20
2023-02-01T10:17:04.973Z,39.72
2023-02-01T10:20:18.752Z,36.90
2023-02-01T10:23:13.790Z,34.38
2023-02-01T10:25:50.152Z,34.46
2023-02-01T10:28:19.051Z,34.62
2023-02-01T10:30:48.786Z,36.85
2023-02-01T10:33:17.921Z,34.52
2023-02-01T10:35:46.883Z,33.70
2023-02-01T10:38:33.089Z,33.47
2023-02-01T10:41:16.224Z,31.80
2023-02-01T10:43:45.943Z,32.70
2023-02-01T10:46:13.185Z,34.00
2023-02-01T10:48:42.021Z,36.99
2023-02-01T10:51:38.130Z,35.82
2023-02-01T10:54:15.591Z,36.32
2023-02-01T10:56:48.507Z,39.39
2023-02-01T10:59:25.975Z,38.83
2023-02-01T11:02:01.600Z,39.40
2023-02-01T11:04:35.260Z,38.92
2023-02-01T11:07:29.852Z,38.14
2023-02-01T11:09:57.536Z,32.91
2023-02-01T11:12:35.001Z,34.02
2023-02-01T11:15:25.758Z,31.94
2023-02-01T11:17:55.917Z,34.76
2023-02-01T11:20:41.131Z,37.80
2023-02-01T11:23:16.815Z,40.86
2023-02-01T11:26:01.269Z,41.02
2023-02-01T11:28:33.355Z,45.10
2023-02-01T11:31:08.167Z,47.49
2023-02-01T11:33:38.176Z,48.79
2023-02-01T11:36:13.416Z,49.28
2023-02-01T11:38:40.530Z,49.12
2023-02-01T11:41:29.083Z,49.95
2023-02-01T11:44:01.839Z,49.58
2023-02-01T11:46:34.696Z,48.11
2023-02-01T11:49:22.365Z,46.32
2023-02-01T11:52:13.395Z,45.19
2023-02-01T11:54:49.686Z,46.09
2023-02-01T11:57:25.475Z,45.31
2023-02-01T12:00:18.446Z,44.34
2023-02-01T12:02:59.176Z,41.07
2023-02-01T12:05:39.546Z,42.51
2023-02-01T12:08:46.853Z,45.36
2023-02-01T12:11:16.397Z,48.20
2023-02-01T12:13:48.919Z,48.94
2023-02-01T12:16:40.643Z,49.95
2023-02-01T12:19:07.461Z,51.08
2023-02-01T12:22:09.940Z,51.73
2023-02-01T12:25:01.724Z,52.54
2023-02-01T12:28:12.897Z,52.79
2023-02-01T12:31:06.242Z,53.15
2023-02-01T12:33:42.366Z,52.78
2023-02-01T12:36:22.467Z,50.47
2023-02-01T12:38:58.193Z,49.88
2023-02-01T12:41:43.457Z,50.50
2023-02-01T12:44:47.704Z,52.12
2023-02-01T12:47:45.841Z,52.86
2023-02-01T12:50:26.776Z,52.80
2023-02-01T12:52:56.097Z,51.65
2023-02-01T12:55:37.935Z,51.31
2023-02-01T12:58:21.691Z,52.21
2023-02-01T13:00:58.754Z,53.39
2023-02-01T13:03:44.181Z,53.84
2023-02-01T13:06:16.983Z,53.63
2023-02-01T13:08:53.661Z,53.40
2023-02-01T13:11:29.766Z,53.79
2023-02-01T13:14:26.477Z,54.73
2023-02-01T13:17:00.795Z,54.21
2023-02-01T13:19:42.724Z,54.18
2023-02-01T13:22:16.366Z,54.91
2023-02-01T13:24:48.354Z,54.80
2023-02-01T13:27:17.426Z,54.57
2023-02-01T13:30:25.303Z,54.22
2023-02-01T13:33:54.215Z,53.60
2023-02-01T13:36:36.972Z,53.95
2023-02-01T13:39:11.231Z,54.09
2023-02-01T13:42:06.449Z,53.62
2023-02-01T13:44:39.539Z,54.31
2023-02-01T13:47:22.810Z,53.85
2023-02-01T13:49:50.233Z,54.31
2023-02-01T13:52:29.660Z,54.23
2023-02-01T13:55:26.294Z,54.08
2023-02-01T13:58:02.647Z,55.51
2023-02-01T14:00:37.848Z,55.30
2023-02-01T14:03:07.515Z,55.89
2023-02-01T14:05:54.263Z,55.05
2023-02-01T14:08:43.013Z,56.12
2023-02-01T14:11:35.925Z,56.00
2023-02-01T14:14:17.971Z,56.47
2023-02-01T14:17:05.587Z,56.57
2023-02-01T14:19:34.520Z,57.00
2023-02-01T14:22:22.454Z,58.09
2023-02-01T14:24:55.853Z,58.65
2023-02-01T14:27:29.615Z,59.08
2023-02-01T14:30:02.636Z,59.59
2023-02-01T14:32:42.059Z,59.23
2023-02-01T14:35:28.392Z,59.24
2023-02-01T14:38:03.655Z,60.48
2023-02-01T14:40:32.083Z,59.95
2023-02-01T14:42:58.997Z,60.18
2023-02-01T14:45:29.514Z,61.25
2023-02-01T14:48:08.641Z,61.23
2023-02-01T14:50:38.501Z,61.50
2023-02-01T14:53:44.025Z,61.61
2023-02-01T14:56:15.535Z,61.34
2023-02-01T14:58:58.276Z,62.09
2023-02-01T15:01:32.819Z,62.27
2023-02-01T15:04:11.848Z,61.79
2023-02-01T15:06:40.680Z,62.19
2023-02-01T15:09:16.912Z,62.74
2023-02-01T15:12:18.646Z,62.64
2023-02-01T15:14:50.238Z,62.44
2023-02-01T15:29:37.575Z,66.35
2023-02-01T15:32:05.972Z,65.98
2023-02-01T15:34:50.672Z,66.58
2023-02-01T15:37:19.567Z,65.76
2023-02-01T15:40:23.176Z,65.43
2023-02-01T15:42:54.159Z,65.21
2023-02-01T15:45:24.055Z,65.56
2023-02-01T15:47:54.122Z,66.00
2023-02-01T15:50:23.325Z,66.19
2023-02-01T15:52:58.853Z,66.02
2023-02-01T15:55:35.010Z,66.71
2023-02-01T15:58:05.940Z,66.50
2023-02-01T16:00:43.446Z,66.66
2023-02-01T16:03:25.585Z,66.64
2023-02-01T16:05:58.434Z,66.39
2023-02-01T16:08:28.090Z,66.78
2023-02-01T16:11:03.091Z,66.48
2023-02-01T16:13:29.998Z,66.84
2023-02-01T16:15:57.012Z,66.09
2023-02-01T16:18:23.985Z,65.99
2023-02-01T16:20:50.920Z,66.25
2023-02-01T16:23:17.869Z,67.14
2023-02-01T16:25:44.724Z,67.41
2023-02-01T16:28:11.589Z,68.15
2023-02-01T16:30:38.827Z,68.42
2023-02-01T16:33:12.110Z,68.79
2023-02-01T16:35:39.218Z,68.33
2023-02-01T16:38:13.805Z,68.75
2023-02-01T16:40:42.571Z,68.37
2023-02-01T16:43:14.295Z,68.02
2023-02-01T16:45:41.620Z,67.78
2023-02-01T16:48:08.535Z,67.75
2023-02-01T16:50:35.414Z,67.83
2023-02-01T16:53:02.585Z,68.27
2023-02-01T16:55:30.333Z,68.24
2023-02-01T16:57:57.165Z,68.52
2023-02-01T17:00:26.278Z,68.98
2023-02-01T17:02:54.395Z,69.18
2023-02-01T17:05:21.852Z,68.83
2023-02-01T17:07:49.130Z,68.78
2023-02-01T17:10:34.506Z,69.29
2023-02-01T17:13:03.117Z,68.85
2023-02-01T17:15:35.624Z,68.57
2023-02-01T17:18:03.324Z,68.93
2023-02-01T17:20:35.380Z,68.79
2023-02-01T17:23:02.857Z,68.52
2023-02-01T17:25:31.252Z,68.07
2023-02-01T17:27:58.153Z,68.86
2023-02-01T17:30:25.019Z,69.22
2023-02-01T17:32:51.956Z,68.91
2023-02-01T17:35:22.287Z,69.05
2023-02-01T17:37:50.884Z,69.97
2023-02-01T17:40:18.165Z,70.25
2023-02-01T17:42:45.129Z,70.44
2023-02-01T17:45:22.865Z,71.06
2023-02-01T17:47:50.033Z,71.44
2023-02-01T17:50:17.212Z,72.40
2023-02-01T17:52:44.245Z,72.49
2023-02-01T17:55:23.574Z,72.09
2023-02-01T17:57:50.906Z,72.63
2023-02-01T18:00:19.335Z,73.27
2023-02-01T18:02:46.318Z,73.73
2023-02-01T18:05:27.256Z,73.45
2023-02-01T18:07:54.135Z,74.16
2023-02-01T18:10:21.146Z,74.81
2023-02-01T18:12:48.154Z,75.05
2023-02-01T18:15:24.397Z,75.71
2023-02-01T18:17:52.264Z,76.53
2023-02-01T18:20:24.889Z,76.56
2023-02-01T18:22:51.946Z,76.73
2023-02-01T18:25:23.257Z,77.26
2023-02-01T18:27:55.415Z,77.42
2023-02-01T18:30:24.993Z,77.33
2023-02-01T18:32:52.026Z,77.82
2023-02-01T18:35:24.940Z,78.06
2023-02-01T18:37:53.564Z,78.07
2023-02-01T18:40:32.974Z,77.72
2023-02-01T18:43:00.422Z,77.53
2023-02-01T18:45:36.659Z,78.38
2023-02-01T18:48:05.751Z,78.37
2023-02-01T18:50:36.052Z,78.48
2023-02-01T18:53:06.102Z,78.74
2023-02-01T18:55:33.854Z,78.69
2023-02-01T18:58:01.872Z,78.60
2023-02-01T19:00:29.859Z,78.97
2023-02-01T19:02:56.913Z,79.21
2023-02-01T19:05:24.252Z,79.24
2023-02-01T19:07:51.512Z,78.94
2023-02-01T19:10:22.385Z,79.19
2023-02-01T19:12:50.799Z,79.36
2023-02-01T19:15:18.897Z,79.27
2023-02-01T19:17:49.013Z,79.05
2023-02-01T19:20:20.852Z,79.35
2023-02-01T19:22:48.117Z,80.05
2023-02-01T19:25:21.510Z,80.14
2023-02-01T19:27:50.227Z,81.04
2023-02-01T19:30:19.227Z,81.30
2023-02-01T19:32:46.432Z,80.75
2023-02-01T19:35:16.932Z,80.43
2023-02-01T19:37:43.827Z,80.40
2023-02-01T19:40:13.965Z,80.64
2023-02-01T19:42:40.855Z,80.63
2023-02-01T19:45:08.784Z,81.44
2023-02-01T19:47:35.981Z,82.18
2023-02-01T19:50:07.029Z,81.60
2023-02-01T19:52:35.289Z,82.14
2023-02-01T19:55:03.873Z,82.87
2023-02-01T19:57:31.162Z,83.14
2023-02-01T19:59:57.970Z,82.81
2023-02-01T20:02:25.799Z,83.09
2023-02-01T20:04:52.717Z,83.01
2023-02-01T20:07:19.595Z,83.27
2023-02-01T20:09:46.542Z,83.18
2023-02-01T20:12:13.558Z,82.66
2023-02-01T20:14:40.632Z,82.13
2023-02-01T20:17:10.535Z,82.56
2023-02-01T20:19:37.545Z,81.48
2023-02-01T20:22:04.451Z,82.00
2023-02-01T20:24:31.267Z,82.29
2023-02-01T20:26:59.285Z,81.98
2023-02-01T20:29:26.307Z,82.45
2023-02-01T20:31:53.606Z,82.50
2023-02-01T20:34:20.973Z,81.97
2023-02-01T20:36:47.815Z,82.16
2023-02-01T20:39:14.730Z,82.49
2023-02-01T20:41:41.690Z,82.41
2023-02-01T20:44:08.563Z,82.22
2023-02-01T20:46:35.526Z,82.54
2023-02-01T20:49:02.480Z,82.51
2023-02-01T20:51:29.337Z,81.91
2023-02-01T20:53:56.125Z,82.55
2023-02-01T20:56:23.045Z,82.15
2023-02-01T20:58:49.874Z,83.42
2023-02-01T21:01:16.807Z,83.38
2023-02-01T21:03:44.114Z,83.31
2023-02-01T21:06:12.943Z,83.70
2023-02-01T21:08:41.511Z,84.19
2023-02-01T21:11:13.706Z,83.93
2023-02-01T21:13:44.223Z,84.11
2023-02-01T21:16:13.494Z,84.84
2023-02-01T21:18:40.938Z,84.23
2023-02-01T21:21:10.275Z,84.38
2023-02-01T21:23:44.952Z,84.19
2023-02-01T21:26:18.532Z,83.94
2023-02-01T21:28:45.872Z,84.41
2023-02-01T21:31:15.274Z,84.09
2023-02-01T21:33:42.262Z,84.64
2023-02-01T21:36:09.965Z,84.09
2023-02-01T21:38:36.956Z,84.37
2023-02-01T21:41:22.512Z,84.33
2023-02-01T21:43:49.389Z,84.50
2023-02-01T21:46:18.228Z,84.49
2023-02-01T21:49:04.169Z,84.26
2023-02-01T21:51:32.223Z,84.43
2023-02-01T21:53:59.026Z,84.52
2023-02-01T21:56:25.915Z,84.73
2023-02-01T21:58:52.806Z,84.95
2023-02-01T22:01:19.837Z,84.71
2023-02-01T22:03:46.774Z,84.53
2023-02-01T22:06:30.406Z,84.70
2023-02-01T22:08:57.884Z,84.82
2023-02-01T22:11:25.288Z,84.87
2023-02-01T22:13:52.635Z,84.75
2023-02-01T22:16:21.600Z,84.20
2023-02-01T22:18:52.638Z,84.52
2023-02-01T22:21:20.466Z,84.74
2023-02-01T22:23:59.166Z,83.53
2023-02-01T22:26:27.622Z,83.81
2023-02-01T22:28:54.637Z,84.33
2023-02-01T22:31:22.268Z,83.81
2023-02-01T22:33:50.610Z,84.02
2023-02-01T22:36:18.507Z,84.13
2023-02-01T22:38:46.992Z,83.68
2023-02-01T22:41:13.964Z,84.21
2023-02-01T22:43:40.968Z,83.53
2023-02-01T22:46:13.154Z,83.72
2023-02-01T22:48:41.877Z,83.75
2023-02-01T22:51:15.053Z,83.94
2023-02-01T22:53:42.006Z,83.30
2023-02-01T22:56:11.724Z,83.19
2023-02-01T22:58:39.095Z,82.75
2023-02-01T23:01:08.094Z,82.36
2023-02-01T23:03:36.518Z,82.07
2023-02-01T23:06:04.821Z,81.66
2023-02-01T23:08:35.347Z,80.19
2023-02-01T23:11:05.863Z,80.23
2023-02-01T23:13:33.795Z,79.18
2023-02-01T23:16:13.960Z,79.26
2023-02-01T23:18:41.385Z,78.99
2023-02-01T23:21:11.754Z,79.16
2023-02-01T23:23:38.682Z,78.48
2023-02-01T23:26:06.015Z,78.75
2023-02-01T23:28:33.494Z,78.32
2023-02-01T23:31:06.846Z,78.09
2023-02-01T23:33:34.207Z,78.04
2023-02-01T23:36:03.975Z,77.29
2023-02-01T23:38:31.021Z,76.67
2023-02-01T23:41:02.391Z,76.94
2023-02-01T23:43:48.064Z,76.62
2023-02-01T23:46:16.283Z,76.38
2023-02-01T23:48:44.605Z,76.05
2023-02-01T23:51:12.834Z,75.83
2023-02-01T23:53:40.159Z,75.38
2023-02-01T23:56:07.762Z,75.07
2023-02-01T23:58:34.851Z,74.89
